Time;durP1;ratioP1;P1;durP2;ratioP2;P2;SDS_P1;SDS_P2;PMS_P1;PMS_P2;Temp;Humidity;BMP_temperature;BMP_pressure;BME280_temperature;BME280_humidity;BME280_pressure;Samples;Min_cycle;Max_cycle;Signal;HPM_P1;HPM_P2
2023/01/03 00:00:20;;;;;;;23.63;15.27;;;4.00;99.90;;;;;;5004260;28;20061;-38
2023/01/03 00:02:46;;;;;;;21.83;13.82;;;4.00;99.90;;;;;;5001661;28;20042;-38
2023/01/03 00:05:11;;;;;;;22.95;13.98;;;4.00;99.90;;;;;;5009057;28;20049;-38
2023/01/03 00:07:37;;;;;;;28.40;15.88;;;4.00;99.90;;;;;;5010302;28;20044;-38
2023/01/03 00:10:08;;;;;;;22.80;14.38;;;3.90;99.90;;;;;;5001772;28;20038;-38
2023/01/03 00:12:35;;;;;;;22.85;13.93;;;3.90;99.90;;;;;;5005369;28;20026;-38
2023/01/03 00:15:01;;;;;;;22.98;13.50;;;3.80;99.90;;;;;;5008011;28;20037;-38
2023/01/03 00:17:27;;;;;;;24.48;14.82;;;3.80;99.90;;;;;;5013495;28;20427;-38
2023/01/03 00:19:53;;;;;;;26.42;14.90;;;3.80;99.90;;;;;;5011776;28;20045;-38
2023/01/03 00:22:19;;;;;;;25.13;15.30;;;3.70;99.90;;;;;;5009432;28;20026;-38
2023/01/03 00:24:47;;;;;;;25.92;15.07;;;3.70;99.90;;;;;;5006622;28;20029;-38
2023/01/03 00:27:13;;;;;;;27.33;15.88;;;3.60;99.90;;;;;;5010504;28;20045;-38
2023/01/03 00:29:39;;;;;;;25.60;15.80;;;3.60;99.90;;;;;;5008577;28;20049;-38
2023/01/03 00:32:05;;;;;;;25.90;16.60;;;3.60;99.90;;;;;;5007906;28;20037;-38
2023/01/03 00:34:32;;;;;;;23.30;15.02;;;3.60;99.90;;;;;;5017742;28;20045;-38
2023/01/03 00:36:58;;;;;;;25.98;15.85;;;3.50;99.90;;;;;;5014584;28;20515;-38
2023/01/03 00:39:24;;;;;;;25.88;16.63;;;3.50;99.90;;;;;;5009088;28;20037;-38
2023/01/03 00:41:50;;;;;;;22.05;14.45;;;3.50;99.90;;;;;;4986300;28;20044;-38
2023/01/03 00:44:17;;;;;;;24.92;15.77;;;3.50;99.90;;;;;;4997833;28;20105;-38
2023/01/03 00:46:43;;;;;;;28.48;16.05;;;3.50;99.90;;;;;;5003396;28;20038;-38
2023/01/03 00:49:09;;;;;;;30.00;15.88;;;3.50;99.90;;;;;;5000010;28;20041;-38
2023/01/03 00:51:39;;;;;;;32.70;16.63;;;3.40;99.90;;;;;;5012000;28;20050;-38
2023/01/03 00:54:07;;;;;;;30.83;17.02;;;3.50;99.90;;;;;;5002374;28;20042;-38
2023/01/03 00:56:35;;;;;;;27.23;16.60;;;3.40;99.90;;;;;;5005921;28;20582;-38
2023/01/03 00:59:01;;;;;;;27.80;16.50;;;3.40;99.90;;;;;;5013592;28;20046;-38
2023/01/03 01:01:38;;;;;;;32.50;17.88;;;3.40;99.90;;;;;;5007491;28;20034;-38
2023/01/03 01:04:08;;;;;;;26.38;16.15;;;3.40;99.90;;;;;;5006587;28;20048;-38
2023/01/03 01:06:38;;;;;;;25.73;16.27;;;3.30;99.90;;;;;;5006594;28;20034;-38
2023/01/03 01:09:06;;;;;;;29.25;17.77;;;3.30;99.90;;;;;;5012462;28;20076;-38
2023/01/03 01:11:32;;;;;;;27.77;17.40;;;3.20;99.90;;;;;;5006071;28;20553;-38
2023/01/03 01:14:00;;;;;;;30.95;18.23;;;3.20;99.90;;;;;;5005468;28;20506;-38
2023/01/03 01:16:30;;;;;;;29.23;18.08;;;3.20;99.90;;;;;;5006294;28;20038;-38
2023/01/03 01:18:58;;;;;;;25.70;15.48;;;3.20;99.90;;;;;;5004160;28;20037;-38
2023/01/03 01:21:30;;;;;;;27.92;16.98;;;3.10;99.90;;;;;;5002202;28;20041;-38
2023/01/03 01:23:58;;;;;;;33.55;16.95;;;3.10;99.90;;;;;;5001730;28;20034;-38
2023/01/03 01:26:25;;;;;;;30.15;16.35;;;3.10;99.90;;;;;;5009728;28;20038;-38
2023/01/03 01:28:52;;;;;;;26.88;16.00;;;3.10;99.90;;;;;;5010457;28;20042;-38
2023/01/03 01:31:20;;;;;;;31.42;16.42;;;3.10;99.90;;;;;;5020699;28;20049;-38
2023/01/03 01:33:46;;;;;;;30.75;16.85;;;3.10;99.90;;;;;;5003415;28;20121;-38
2023/01/03 01:36:15;;;;;;;27.25;16.70;;;3.10;99.90;;;;;;5006146;28;20114;-38
2023/01/03 01:38:42;;;;;;;26.48;16.45;;;3.00;99.90;;;;;;4998121;28;20170;-37
2023/01/03 01:41:14;;;;;;;30.42;16.20;;;3.00;99.90;;;;;;5008207;28;20042;-38
2023/01/03 01:46:43;;;;;;;26.60;15.68;;;3.00;99.90;;;;;;5010350;28;20456;-38
2023/01/03 01:49:15;;;;;;;25.90;16.30;;;3.00;99.90;;;;;;5009472;28;20081;-38
2023/01/03 01:51:42;;;;;;;26.92;16.65;;;3.00;99.90;;;;;;4999201;28;20046;-38
2023/01/03 01:54:08;;;;;;;27.55;16.33;;;3.00;99.90;;;;;;5022862;28;20070;-38
2023/01/03 01:56:39;;;;;;;25.48;15.10;;;2.90;99.90;;;;;;4989893;28;20045;-38
2023/01/03 01:59:08;;;;;;;26.77;16.00;;;2.90;99.90;;;;;;5009581;28;20483;-38
2023/01/03 02:01:34;;;;;;;25.58;14.88;;;2.90;99.90;;;;;;5005969;28;20042;-38
2023/01/03 02:04:08;;;;;;;28.58;16.80;;;2.80;99.90;;;;;;5008053;28;20038;-38
2023/01/03 02:06:34;;;;;;;31.25;15.50;;;2.80;99.90;;;;;;5005538;28;20065;-38
2023/01/03 02:09:00;;;;;;;24.05;14.88;;;2.80;99.90;;;;;;5007114;28;20467;-38
2023/01/03 02:13:04;;;;;;;26.98;15.95;;;2.70;99.90;;;;;;5007025;28;20043;-38
2023/01/03 02:15:04;;;;;;;29.60;15.77;;;2.70;99.90;;;;;;5008953;28;20041;-38
2023/01/03 02:18:03;;;;;;;26.52;16.30;;;2.70;99.90;;;;;;5028328;28;20404;-38
2023/01/03 02:20:49;;;;;;;29.85;15.38;;;2.70;99.90;;;;;;5006252;28;20500;-38
2023/01/03 02:23:52;;;;;;;32.75;17.88;;;2.70;99.90;;;;;;5007514;28;20487;-38
2023/01/03 02:26:40;;;;;;;27.20;16.10;;;2.70;99.90;;;;;;5022618;28;20042;-38
2023/01/03 02:29:14;;;;;;;29.35;17.23;;;2.70;99.90;;;;;;5010354;28;20084;-38
2023/01/03 02:31:45;;;;;;;33.45;16.67;;;2.70;99.90;;;;;;5006565;28;20038;-38
2023/01/03 02:34:37;;;;;;;30.27;17.10;;;2.60;99.90;;;;;;5008494;28;20503;-38
2023/01/03 02:37:12;;;;;;;36.83;19.25;;;2.60;99.90;;;;;;4989207;28;20124;-38
2023/01/03 02:39:56;;;;;;;31.25;17.83;;;2.60;99.90;;;;;;5011543;28;20034;-38
2023/01/03 02:45:45;;;;;;;33.13;19.13;;;2.50;99.90;;;;;;5005503;28;20403;-38
2023/01/03 02:48:31;;;;;;;33.70;19.00;;;2.50;99.90;;;;;;5021651;28;20069;-38
2023/01/03 02:51:00;;;;;;;38.38;19.98;;;2.50;99.90;;;;;;5012669;28;20482;-37
2023/01/03 02:53:35;;;;;;;40.13;21.35;;;2.50;99.90;;;;;;5010601;28;20379;-37
2023/01/03 02:56:06;;;;;;;46.70;23.55;;;2.50;99.90;;;;;;5007873;28;20046;-38
2023/01/03 02:58:35;;;;;;;37.17;20.52;;;2.50;99.90;;;;;;5008835;28;20053;-37
2023/01/03 03:01:04;;;;;;;50.20;24.75;;;2.50;99.90;;;;;;5012360;28;20052;-37
2023/01/03 03:03:35;;;;;;;58.92;27.27;;;2.50;99.90;;;;;;5000905;28;20026;-38
2023/01/03 03:06:22;;;;;;;54.17;24.83;;;2.50;99.90;;;;;;5012662;28;20046;-38
2023/01/03 03:08:48;;;;;;;52.03;24.75;;;2.60;99.90;;;;;;5002872;28;20073;-38
2023/01/03 03:14:06;;;;;;;55.10;27.52;;;2.50;99.90;;;;;;5007862;28;20057;-38
2023/01/03 03:16:52;;;;;;;51.22;26.27;;;2.50;99.90;;;;;;5009041;28;20073;-37
2023/01/03 03:25:54;;;;;;;51.95;25.73;;;2.40;99.90;;;;;;5001774;28;20089;-37
2023/01/03 03:28:34;;;;;;;56.33;26.25;;;2.40;99.90;;;;;;4970628;28;20377;-37
2023/01/03 03:31:31;;;;;;;53.83;27.75;;;2.40;99.90;;;;;;5005559;28;20042;-37
2023/01/03 03:34:06;;;;;;;52.13;26.23;;;2.40;99.90;;;;;;5007513;28;20511;-37
2023/01/03 03:36:44;;;;;;;50.53;25.20;;;2.40;99.90;;;;;;5008580;28;20050;-37
2023/01/03 03:45:01;;;;;;;54.67;27.63;;;2.30;99.90;;;;;;5026021;28;20126;-37
2023/01/03 03:47:50;;;;;;;59.13;28.27;;;2.30;99.90;;;;;;5013101;28;20116;-37
2023/01/03 03:50:22;;;;;;;52.88;29.08;;;2.30;99.90;;;;;;5011545;28;20077;-37
2023/01/03 03:52:52;;;;;;;61.35;30.02;;;2.30;99.90;;;;;;5005197;28;20450;-37
2023/01/03 03:55:43;;;;;;;54.35;27.35;;;2.30;99.90;;;;;;5007980;28;20073;-37
2023/01/03 03:58:16;;;;;;;69.95;30.02;;;2.30;99.90;;;;;;5004599;28;20403;-37
2023/01/03 04:00:44;;;;;;;66.13;29.80;;;2.30;99.90;;;;;;5008023;28;20112;-37
2023/01/03 04:03:12;;;;;;;57.45;28.38;;;2.30;99.90;;;;;;5017172;28;20030;-36
2023/01/03 04:05:43;;;;;;;60.60;30.48;;;2.30;99.90;;;;;;5006487;28;20038;-37
2023/01/03 04:08:09;;;;;;;54.85;27.80;;;2.30;99.90;;;;;;5000483;28;20038;-36
2023/01/03 04:10:35;;;;;;;55.83;29.02;;;2.20;99.90;;;;;;5019798;28;20076;-37
2023/01/03 04:13:01;;;;;;;64.20;30.65;;;2.20;99.90;;;;;;5011784;28;20597;-37
2023/01/03 04:15:27;;;;;;;61.83;30.30;;;2.20;99.90;;;;;;5016922;28;20033;-37
2023/01/03 04:17:52;;;;;;;52.10;26.85;;;2.20;99.90;;;;;;5006961;28;20041;-37
2023/01/03 04:20:18;;;;;;;54.65;28.55;;;2.10;99.90;;;;;;5008334;28;20037;-37
2023/01/03 04:22:44;;;;;;;52.97;28.45;;;2.10;99.90;;;;;;5005993;28;20030;-37
2023/01/03 04:25:10;;;;;;;56.63;28.88;;;2.10;99.90;;;;;;5008227;28;20034;-37
2023/01/03 04:27:36;;;;;;;62.03;30.52;;;2.10;99.90;;;;;;5005933;28;20042;-37
2023/01/03 04:30:04;;;;;;;60.40;31.63;;;2.10;99.90;;;;;;5006263;28;20136;-37
2023/01/03 04:32:30;;;;;;;60.85;31.67;;;2.20;99.90;;;;;;5008389;28;20108;-37
2023/01/03 04:34:56;;;;;;;65.75;34.13;;;2.10;99.90;;;;;;5000331;28;20046;-37
2023/01/03 04:37:22;;;;;;;76.80;35.22;;;2.10;99.90;;;;;;5001397;28;20488;-37
2023/01/03 04:39:47;;;;;;;65.88;33.28;;;2.10;99.90;;;;;;5000454;28;20042;-36
2023/01/03 04:44:57;;;;;;;75.32;35.38;;;2.20;99.90;;;;;;5007901;28;20044;-37
2023/01/03 04:47:23;;;;;;;63.88;33.83;;;2.20;99.90;;;;;;5003585;28;20406;-37
2023/01/03 04:49:49;;;;;;;65.78;33.45;;;2.20;99.90;;;;;;4996814;28;20049;-37
2023/01/03 04:52:15;;;;;;;73.15;35.00;;;2.30;99.90;;;;;;5003682;28;20491;-37
2023/01/03 04:54:41;;;;;;;72.35;34.88;;;2.20;99.90;;;;;;5006345;28;20045;-37
2023/01/03 04:57:07;;;;;;;67.03;34.22;;;2.30;99.90;;;;;;5010581;28;20042;-37
2023/01/03 04:59:33;;;;;;;72.07;34.30;;;2.30;99.90;;;;;;5008503;28;20026;-36
2023/01/03 05:02:00;;;;;;;69.28;35.45;;;2.20;99.90;;;;;;5013487;28;20026;-37
2023/01/03 05:04:25;;;;;;;69.15;34.53;;;2.20;99.90;;;;;;5002220;28;20092;-37
2023/01/03 05:06:52;;;;;;;77.82;37.28;;;2.30;99.90;;;;;;5005585;28;20034;-37
2023/01/03 05:09:17;;;;;;;67.60;35.17;;;2.30;99.90;;;;;;5008878;28;20095;-37
2023/01/03 05:11:43;;;;;;;72.10;35.55;;;2.20;99.90;;;;;;5006168;28;20066;-37
2023/01/03 05:14:09;;;;;;;71.55;33.10;;;2.20;99.90;;;;;;5000961;28;20046;-37
2023/01/03 05:16:35;;;;;;;65.53;34.38;;;2.20;99.90;;;;;;5006204;28;20046;-37
2023/01/03 05:19:01;;;;;;;71.70;33.72;;;2.20;99.90;;;;;;5022865;28;20109;-36
2023/01/03 05:26:56;;;;;;;66.90;33.17;;;2.10;99.90;;;;;;5003160;28;19924;-37
2023/01/03 05:29:22;;;;;;;65.03;31.17;;;2.10;99.90;;;;;;5001814;28;20431;-37
2023/01/03 05:31:48;;;;;;;62.00;33.47;;;2.00;99.90;;;;;;5011185;28;20049;-37
2023/01/03 05:34:14;;;;;;;64.95;34.42;;;2.00;99.90;;;;;;5000929;28;20377;-37
2023/01/03 05:36:40;;;;;;;65.15;35.60;;;2.00;99.90;;;;;;5006881;28;20041;-37
2023/01/03 05:39:06;;;;;;;59.42;34.45;;;2.00;99.90;;;;;;5010547;28;20475;-37
2023/01/03 05:44:17;;;;;;;65.10;35.45;;;2.00;99.90;;;;;;5000809;28;20411;-37
2023/01/03 05:46:43;;;;;;;72.15;37.40;;;2.00;99.90;;;;;;5006859;28;20318;-37
2023/01/03 05:49:09;;;;;;;66.65;34.88;;;2.00;99.90;;;;;;5008187;28;20034;-36
2023/01/03 05:51:34;;;;;;;78.00;39.80;;;2.00;99.90;;;;;;5002460;28;20068;-37
2023/01/03 05:54:00;;;;;;;69.88;35.58;;;1.90;99.90;;;;;;5007629;28;20042;-37
2023/01/03 05:56:26;;;;;;;71.15;36.40;;;2.00;99.90;;;;;;4999931;28;20042;-37
2023/01/03 05:58:52;;;;;;;69.35;35.03;;;1.90;99.90;;;;;;4999727;28;20562;-37
2023/01/03 06:01:17;;;;;;;66.53;36.70;;;1.90;99.90;;;;;;5004596;28;20038;-36
2023/01/03 06:03:45;;;;;;;70.85;35.47;;;1.90;99.90;;;;;;5001057;28;20037;-37
2023/01/03 06:06:12;;;;;;;66.95;35.00;;;1.90;99.90;;;;;;5007144;28;20557;-37
2023/01/03 06:08:38;;;;;;;61.63;33.05;;;1.90;99.90;;;;;;5009795;28;20077;-37
2023/01/03 06:11:09;;;;;;;69.72;37.33;;;1.90;99.90;;;;;;5005938;28;20117;-37
2023/01/03 06:13:35;;;;;;;60.40;32.08;;;1.80;99.90;;;;;;5006971;28;20029;-38
2023/01/03 06:18:51;;;;;;;59.97;34.22;;;1.80;99.90;;;;;;5017090;28;20111;-37
2023/01/03 06:21:17;;;;;;;74.18;38.03;;;1.70;99.90;;;;;;5011630;28;20038;-37
2023/01/03 06:23:46;;;;;;;68.95;36.10;;;1.70;99.90;;;;;;5009507;28;20213;-37
2023/01/03 06:26:13;;;;;;;69.45;35.60;;;1.70;99.90;;;;;;5012738;28;20060;-37
2023/01/03 06:28:39;;;;;;;71.95;37.88;;;1.70;99.90;;;;;;5007478;28;20634;-37
2023/01/03 06:31:05;;;;;;;72.85;37.53;;;1.70;99.90;;;;;;5034356;28;20047;-37
2023/01/03 06:33:31;;;;;;;71.50;37.10;;;1.70;99.90;;;;;;5005004;28;20042;-37
2023/01/03 06:36:00;;;;;;;76.32;39.20;;;1.70;99.90;;;;;;5012848;28;20117;-37
2023/01/03 06:38:27;;;;;;;82.18;40.40;;;1.70;99.90;;;;;;4994987;28;20031;-37
2023/01/03 06:40:53;;;;;;;178.55;47.85;;;1.70;99.90;;;;;;5012601;28;20034;-37
2023/01/03 06:43:19;;;;;;;306.40;54.78;;;1.70;99.90;;;;;;4998446;28;20034;-37
2023/01/03 06:54:01;;;;;;;234.30;46.72;;;1.70;99.90;;;;;;5010881;28;20149;-37
2023/01/03 06:56:27;;;;;;;210.60;40.38;;;1.70;99.90;;;;;;5010795;28;20121;-37
2023/01/03 06:58:52;;;;;;;132.15;35.83;;;1.70;99.90;;;;;;5003335;28;20041;-37
2023/01/03 07:01:19;;;;;;;120.35;36.58;;;1.70;99.90;;;;;;5019427;28;20483;-37
2023/01/03 07:03:44;;;;;;;133.23;36.33;;;1.70;99.90;;;;;;4989145;28;20030;-37
2023/01/03 07:06:10;;;;;;;167.90;35.03;;;1.70;99.90;;;;;;5012904;28;20111;-37
2023/01/03 07:08:36;;;;;;;211.98;42.33;;;1.70;99.90;;;;;;4997291;28;20402;-37
2023/01/03 07:11:02;;;;;;;172.55;37.00;;;1.80;99.90;;;;;;5012941;28;20045;-37
2023/01/03 07:16:12;;;;;;;;;;;1.90;99.90;;;;;;5014025;28;20048;-37
2023/01/03 07:18:38;;;;;;;151.32;37.47;;;1.90;99.90;;;;;;4995866;28;20393;-37
2023/01/03 07:21:07;;;;;;;155.23;39.25;;;1.90;99.90;;;;;;4996066;28;20121;-37
2023/01/03 07:23:32;;;;;;;101.57;35.28;;;2.00;99.90;;;;;;5009599;28;20088;-37
2023/01/03 07:25:58;;;;;;;172.15;43.25;;;2.00;99.90;;;;;;5003922;28;20042;-37
2023/01/03 07:28:24;;;;;;;265.65;53.13;;;2.10;99.90;;;;;;5005894;28;20064;-37
2023/01/03 07:30:50;;;;;;;122.95;39.08;;;2.10;99.90;;;;;;5003960;28;20061;-37
2023/01/03 07:33:17;;;;;;;263.20;52.63;;;2.10;99.90;;;;;;4998160;28;20042;-37
2023/01/03 07:35:43;;;;;;;149.20;40.60;;;2.20;99.90;;;;;;5012744;28;20048;-37
2023/01/03 07:38:11;;;;;;;300.67;58.00;;;2.20;99.90;;;;;;5001659;28;20069;-37
2023/01/03 07:40:37;;;;;;;349.25;64.82;;;2.30;99.90;;;;;;5010876;28;20045;-37
2023/01/03 07:45:48;;;;;;;221.07;49.35;;;2.40;99.90;;;;;;5001529;28;20053;-37
2023/01/03 07:48:14;;;;;;;161.93;42.92;;;2.50;99.90;;;;;;5011448;28;20041;-37
2023/01/03 07:50:41;;;;;;;164.50;45.15;;;2.60;99.90;;;;;;5006574;28;20045;-37
2023/01/03 07:53:15;;;;;;;165.10;46.13;;;2.70;99.90;;;;;;5007602;28;20034;-37
2023/01/03 07:55:43;;;;;;;165.13;46.65;;;2.70;99.90;;;;;;4992870;28;20080;-37
2023/01/03 07:58:09;;;;;;;256.92;54.20;;;2.80;99.90;;;;;;5004010;28;20058;-37
2023/01/03 08:00:35;;;;;;;358.30;70.80;;;2.90;99.90;;;;;;5009453;28;20057;-37
2023/01/03 08:03:01;;;;;;;289.38;65.18;;;2.90;99.90;;;;;;4998950;28;20110;-37
2023/01/03 08:05:26;;;;;;;236.63;62.20;;;2.90;99.90;;;;;;5008479;28;20096;-37
2023/01/03 08:07:55;;;;;;;203.70;53.50;;;3.00;99.90;;;;;;5010785;28;20044;-37
2023/01/03 08:13:17;;;;;;;296.63;66.72;;;3.20;99.90;;;;;;5008400;28;20042;-37
2023/01/03 08:15:47;;;;;;;462.45;92.43;;;3.20;99.90;;;;;;4990650;28;20049;-37
2023/01/03 08:18:14;;;;;;;227.65;63.05;;;3.30;99.90;;;;;;5005828;28;20039;-37
2023/01/03 08:20:40;;;;;;;230.07;62.03;;;3.40;99.90;;;;;;5011044;28;20026;-37
2023/01/03 08:23:06;;;;;;;263.38;65.03;;;3.40;99.90;;;;;;5007811;28;20373;-37
2023/01/03 08:25:32;;;;;;;232.23;61.72;;;3.50;99.90;;;;;;4998432;28;20040;-37
2023/01/03 08:27:58;;;;;;;207.65;57.45;;;3.60;99.90;;;;;;5006028;28;20037;-37
2023/01/03 08:30:28;;;;;;;225.77;63.88;;;3.60;99.90;;;;;;5000461;28;20070;-37
2023/01/03 08:32:55;;;;;;;197.45;58.97;;;3.70;99.90;;;;;;5015310;28;20491;-37
2023/01/03 08:35:23;;;;;;;179.23;54.63;;;3.80;99.90;;;;;;5002598;28;20034;-37
2023/01/03 08:37:49;;;;;;;186.07;54.92;;;3.80;99.90;;;;;;5009227;28;20058;-37
2023/01/03 08:40:16;;;;;;;185.32;56.08;;;3.90;99.90;;;;;;5001374;28;20034;-37
2023/01/03 08:42:44;;;;;;;194.05;56.35;;;3.90;99.90;;;;;;4997322;28;20045;-37
2023/01/03 08:45:15;;;;;;;194.05;55.90;;;3.90;99.90;;;;;;5002931;28;20036;-37
2023/01/03 08:47:42;;;;;;;201.07;68.18;;;4.00;99.90;;;;;;5006631;28;21371;-38
2023/01/03 08:50:09;;;;;;;179.93;56.38;;;4.00;99.90;;;;;;5005086;28;20039;-37
2023/01/03 08:52:35;;;;;;;160.82;51.50;;;4.10;99.90;;;;;;5006474;28;20121;-38
2023/01/03 08:55:01;;;;;;;167.27;54.45;;;4.10;99.90;;;;;;4996871;28;20471;-37
2023/01/03 08:57:27;;;;;;;177.70;56.72;;;4.20;99.90;;;;;;5000224;28;20042;-37
2023/01/03 08:59:52;;;;;;;163.88;53.33;;;4.20;99.90;;;;;;5000103;28;20076;-38
2023/01/03 09:02:20;;;;;;;175.90;59.58;;;4.30;99.90;;;;;;5008487;28;20042;-37
2023/01/03 09:04:46;;;;;;;165.98;56.38;;;4.30;99.90;;;;;;5002194;28;20036;-37
2023/01/03 09:07:11;;;;;;;172.55;54.00;;;4.40;99.90;;;;;;5010846;28;20404;-38
2023/01/03 09:09:37;;;;;;;156.20;53.40;;;4.40;99.90;;;;;;4999550;28;20042;-37
2023/01/03 09:12:03;;;;;;;155.27;53.15;;;4.40;99.90;;;;;;5008178;28;20043;-38
2023/01/03 09:14:29;;;;;;;151.43;51.03;;;4.50;99.90;;;;;;4996549;28;20037;-38
2023/01/03 09:16:55;;;;;;;146.35;51.50;;;4.50;99.90;;;;;;4998467;28;20408;-37
2023/01/03 09:19:21;;;;;;;136.85;53.85;;;4.50;99.90;;;;;;5009951;28;20048;-38
2023/01/03 09:21:47;;;;;;;146.55;53.38;;;4.60;99.90;;;;;;5018299;28;20035;-37
2023/01/03 09:24:12;;;;;;;137.82;50.22;;;4.60;99.90;;;;;;5006099;28;20048;-38
2023/01/03 09:26:38;;;;;;;132.45;52.40;;;4.60;99.90;;;;;;5003675;28;20030;-37
2023/01/03 09:29:04;;;;;;;128.07;50.30;;;4.60;99.90;;;;;;5017463;28;20374;-37
2023/01/03 09:31:33;;;;;;;135.95;49.63;;;4.60;99.90;;;;;;5015187;28;20463;-37
2023/01/03 09:33:59;;;;;;;138.35;50.47;;;4.60;99.90;;;;;;5011140;28;20121;-38
2023/01/03 09:36:25;;;;;;;126.88;49.30;;;4.70;99.90;;;;;;5005778;28;20072;-38
2023/01/03 09:38:51;;;;;;;132.65;50.08;;;4.70;99.90;;;;;;4999068;28;20437;-38
2023/01/03 09:41:22;;;;;;;129.80;49.75;;;4.70;99.90;;;;;;5015673;28;20130;-37
2023/01/03 09:43:51;;;;;;;122.43;45.40;;;4.80;99.90;;;;;;5003957;28;20034;-38
2023/01/03 09:46:24;;;;;;;118.93;49.80;;;4.80;99.90;;;;;;5007104;28;20042;-38
2023/01/03 09:48:51;;;;;;;127.47;51.92;;;4.80;99.90;;;;;;5006056;28;20038;-37
2023/01/03 10:06:31;;;;;;;118.43;49.45;;;4.90;99.90;;;;;;5000016;28;20053;-38
2023/01/03 10:09:15;;;;;;;134.35;53.92;;;5.00;99.90;;;;;;4999155;28;20132;-38
2023/01/03 10:12:03;;;;;;;131.07;51.53;;;5.00;99.90;;;;;;5020727;28;20049;-38
2023/01/03 10:14:42;;;;;;;125.90;48.67;;;5.10;99.90;;;;;;5005752;28;20038;-38
2023/01/03 10:17:45;;;;;;;131.90;52.08;;;5.10;99.90;;;;;;5026242;28;20034;-38
2023/01/03 10:20:44;;;;;;;115.00;50.83;;;5.20;99.90;;;;;;5009874;28;20096;-38
2023/01/03 10:23:10;;;;;;;119.88;50.33;;;5.20;99.90;;;;;;5009523;28;20121;-38
2023/01/03 10:25:38;;;;;;;122.60;51.95;;;5.20;99.90;;;;;;5012178;28;20113;-38
2023/01/03 10:28:21;;;;;;;128.27;53.28;;;5.20;99.90;;;;;;5006392;28;20499;-38
2023/01/03 10:31:06;;;;;;;114.10;49.08;;;5.30;99.90;;;;;;5010341;28;20041;-38
2023/01/03 10:33:46;;;;;;;116.10;47.10;;;5.30;99.90;;;;;;5021312;28;20038;-38
2023/01/03 10:36:14;;;;;;;107.72;45.85;;;5.30;99.90;;;;;;5004012;28;20487;-38
2023/01/03 10:38:41;;;;;;;99.95;46.10;;;5.30;99.90;;;;;;5012249;28;20386;-38
2023/01/03 10:41:46;;;;;;;107.30;48.00;;;5.40;99.90;;;;;;5013259;28;20042;-38
2023/01/03 10:44:27;;;;;;;99.07;46.47;;;5.40;99.90;;;;;;4943363;28;20046;-38
2023/01/03 10:46:55;;;;;;;109.40;48.17;;;5.50;99.90;;;;;;5004204;28;20058;-38
2023/01/03 10:49:24;;;;;;;96.20;45.35;;;5.60;99.90;;;;;;5015336;28;20116;-38
2023/01/03 10:51:54;;;;;;;86.25;41.58;;;5.60;99.90;;;;;;5006052;28;20107;-38
2023/01/03 10:54:26;;;;;;;88.38;42.13;;;5.70;99.90;;;;;;4984904;28;20558;-38
2023/01/03 10:56:52;;;;;;;85.63;41.92;;;5.70;99.90;;;;;;5009307;28;20081;-38
2023/01/03 10:59:30;;;;;;;81.85;40.92;;;5.70;99.90;;;;;;4998960;28;20073;-38
2023/01/03 11:02:08;;;;;;;82.57;41.05;;;5.70;99.90;;;;;;5003387;28;20041;-38
2023/01/03 11:04:34;;;;;;;82.95;40.58;;;5.70;99.90;;;;;;5002798;28;20038;-38
2023/01/03 11:07:12;;;;;;;75.88;37.63;;;5.80;99.90;;;;;;5003954;28;20047;-37
2023/01/03 11:09:50;;;;;;;78.88;40.80;;;5.70;99.90;;;;;;5026447;28;20038;-38
2023/01/03 11:12:37;;;;;;;72.03;40.15;;;5.80;99.90;;;;;;5024860;28;20078;-38
2023/01/03 11:15:31;;;;;;;76.22;39.97;;;5.80;99.90;;;;;;5004948;28;20407;-37
2023/01/03 11:18:03;;;;;;;74.10;41.35;;;5.80;99.90;;;;;;5006882;28;20060;-38
2023/01/03 11:20:40;;;;;;;74.53;39.90;;;5.80;99.90;;;;;;5006781;28;20547;-37
2023/01/03 11:23:35;;;;;;;69.45;36.20;;;5.90;99.90;;;;;;5001468;28;20044;-37
2023/01/03 11:26:22;;;;;;;58.35;34.60;;;5.90;99.90;;;;;;5016924;28;20108;-37
2023/01/03 11:29:07;;;;;;;62.38;35.60;;;6.00;99.90;;;;;;5001195;28;20057;-38
2023/01/03 11:31:51;;;;;;;63.42;35.15;;;6.10;99.90;;;;;;5020901;28;20398;-38
2023/01/03 11:34:40;;;;;;;66.18;36.33;;;6.10;99.90;;;;;;5018829;28;20137;-38
2023/01/03 11:37:43;;;;;;;52.45;32.13;;;6.20;99.90;;;;;;5007466;28;20571;-37
2023/01/03 11:40:21;;;;;;;56.20;31.50;;;6.20;99.90;;;;;;5001269;28;20038;-38
2023/01/03 11:43:05;;;;;;;61.60;33.65;;;6.30;99.90;;;;;;4999192;28;20038;-38
2023/01/03 11:45:57;;;;;;;48.92;27.55;;;6.30;99.90;;;;;;5004154;28;20118;-37
2023/01/03 11:48:47;;;;;;;51.65;29.30;;;6.40;99.90;;;;;;5003961;28;20057;-37
2023/01/03 11:51:27;;;;;;;48.35;28.90;;;6.40;99.90;;;;;;5001533;28;20144;-38
2023/01/03 11:54:16;;;;;;;42.38;27.75;;;6.40;99.90;;;;;;5005463;28;20139;-37
2023/01/03 11:56:46;;;;;;;46.67;28.75;;;6.40;99.90;;;;;;5007251;28;20053;-37
2023/01/03 11:59:30;;;;;;;45.67;28.85;;;6.40;99.90;;;;;;5004151;28;20391;-37
2023/01/03 12:02:17;;;;;;;43.83;27.48;;;6.40;99.90;;;;;;5006751;28;20042;-37
2023/01/03 12:05:13;;;;;;;39.45;25.50;;;6.40;99.90;;;;;;5020468;28;20052;-37
2023/01/03 12:07:56;;;;;;;44.42;26.02;;;6.50;99.90;;;;;;5020394;28;20037;-38
2023/01/03 12:10:31;;;;;;;44.10;27.27;;;6.50;99.90;;;;;;5003290;28;20046;-37
2023/01/03 12:13:09;;;;;;;43.65;26.10;;;6.50;99.90;;;;;;5007021;28;20046;-38
2023/01/03 12:15:44;;;;;;;37.53;21.80;;;6.50;99.90;;;;;;5000092;28;20042;-37
2023/01/03 12:18:40;;;;;;;40.17;25.02;;;6.50;99.90;;;;;;5003137;28;20033;-38
2023/01/03 12:21:31;;;;;;;40.85;22.85;;;6.50;99.90;;;;;;5000080;28;20199;-37
2023/01/03 12:24:02;;;;;;;38.13;23.65;;;6.50;99.90;;;;;;5026516;28;20092;-37
2023/01/03 12:26:29;;;;;;;35.28;22.67;;;6.60;99.90;;;;;;5007681;28;20507;-37
2023/01/03 12:29:10;;;;;;;34.42;21.77;;;6.60;99.90;;;;;;5007306;28;20044;-38
2023/01/03 12:32:02;;;;;;;37.95;22.98;;;6.60;99.90;;;;;;5006841;28;20464;-38
2023/01/03 12:34:53;;;;;;;36.38;20.65;;;6.60;99.90;;;;;;4999009;28;20097;-38
2023/01/03 12:37:27;;;;;;;39.40;22.83;;;6.60;99.90;;;;;;5015493;28;20038;-38
2023/01/03 12:40:20;;;;;;;39.22;21.15;;;6.60;99.90;;;;;;5001535;28;20046;-38
2023/01/03 12:42:58;;;;;;;37.17;21.60;;;6.60;99.90;;;;;;5001103;28;20065;-38
2023/01/03 12:45:49;;;;;;;39.30;24.30;;;6.60;99.90;;;;;;5005844;28;20117;-37
2023/01/03 12:48:33;;;;;;;36.53;21.88;;;6.70;99.90;;;;;;5010441;28;20087;-38
2023/01/03 12:50:59;;;;;;;37.55;22.70;;;6.70;99.90;;;;;;4985327;28;20034;-38
2023/01/03 12:53:30;;;;;;;41.00;23.48;;;6.70;99.90;;;;;;5007104;28;20053;-37
2023/01/03 12:56:21;;;;;;;40.67;23.25;;;6.70;99.90;;;;;;5012276;28;20046;-38
2023/01/03 12:59:15;;;;;;;37.40;22.65;;;6.70;99.90;;;;;;5018454;28;20084;-38
2023/01/03 13:01:53;;;;;;;44.22;22.63;;;6.70;99.90;;;;;;5006632;28;20061;-38
2023/01/03 13:04:24;;;;;;;42.88;22.88;;;6.70;99.90;;;;;;5010567;28;20121;-38
2023/01/03 13:07:22;;;;;;;35.08;21.45;;;6.80;99.90;;;;;;5005432;28;20041;-38
2023/01/03 13:09:55;;;;;;;38.08;21.85;;;6.70;99.90;;;;;;5012749;28;20573;-38
2023/01/03 13:12:25;;;;;;;38.10;22.20;;;6.80;99.90;;;;;;5010611;28;20445;-38
2023/01/03 13:14:53;;;;;;;39.97;22.42;;;6.80;99.90;;;;;;4998642;28;20285;-37
2023/01/03 13:17:24;;;;;;;39.13;21.25;;;6.80;99.90;;;;;;5010999;28;20045;-38
2023/01/03 13:19:55;;;;;;;36.58;21.25;;;6.80;99.90;;;;;;5001027;28;20092;-38
2023/01/03 13:22:22;;;;;;;36.83;20.80;;;6.90;99.90;;;;;;5003286;28;20042;-37
2023/01/03 13:24:50;;;;;;;36.67;20.50;;;6.90;99.90;;;;;;5001590;28;20038;-38
2023/01/03 13:29:53;;;;;;;35.58;20.95;;;6.90;99.90;;;;;;4995593;28;20042;-38
2023/01/03 13:32:19;;;;;;;36.35;20.73;;;6.90;99.90;;;;;;5012532;28;20121;-38
2023/01/03 13:35:04;;;;;;;36.00;20.30;;;6.90;99.90;;;;;;4977290;28;20128;-38
2023/01/03 13:37:49;;;;;;;34.83;19.52;;;7.00;99.90;;;;;;4997122;28;20264;-37
2023/01/03 13:40:28;;;;;;;32.63;19.02;;;7.00;99.90;;;;;;4999727;28;20045;-37
2023/01/03 13:43:28;;;;;;;32.78;19.02;;;7.10;99.90;;;;;;5005014;28;20447;-37
2023/01/03 13:45:57;;;;;;;30.38;18.52;;;7.10;99.90;;;;;;5005716;28;20053;-38
2023/01/03 13:48:32;;;;;;;31.10;18.48;;;7.20;99.90;;;;;;5004408;28;20085;-38
2023/01/03 13:51:23;;;;;;;31.38;18.20;;;7.20;99.90;;;;;;5007269;28;20483;-38
2023/01/03 13:53:59;;;;;;;31.58;17.63;;;7.20;99.90;;;;;;5005618;28;20500;-38
2023/01/03 13:56:48;;;;;;;28.52;18.23;;;7.20;99.90;;;;;;5005870;28;20038;-38
2023/01/03 13:59:14;;;;;;;31.80;18.70;;;7.30;99.90;;;;;;5022578;28;20399;-38
2023/01/03 14:02:05;;;;;;;34.63;17.73;;;7.20;99.90;;;;;;5004800;28;20037;-38
2023/01/03 14:05:01;;;;;;;29.20;17.52;;;7.30;99.90;;;;;;5021966;28;20117;-38
2023/01/03 14:08:05;;;;;;;30.27;17.77;;;7.30;99.90;;;;;;5002049;28;20045;-38
2023/01/03 14:11:02;;;;;;;27.90;18.30;;;7.30;99.90;;;;;;5021991;28;20523;-38